Time;durP1;ratioP1;P1;durP2;ratioP2;P2;SDS_P1;SDS_P2;PMS_P1;PMS_P2;Temp;Humidity;BMP_temperature;BMP_pressure;BME280_temperature;BME280_humidity;BME280_pressure;Samples;Min_cycle;Max_cycle;Signal;HPM_P1;HPM_P2
2022/07/27 00:00:25;;;;;;;0.00;0.00;;;;;;;;;;5054561;28;20206;-72
2022/07/27 00:02:54;;;;;;;0.00;0.00;;;;;;;;;;5051021;28;20244;-72
2022/07/27 00:05:21;;;;;;;0.00;0.00;;;;;;;;;;5053421;28;20209;-72
2022/07/27 00:07:49;;;;;;;0.00;0.00;;;;;;;;;;5052526;28;20202;-73
2022/07/27 00:10:16;;;;;;;0.00;0.00;;;;;;;;;;5053711;28;20302;-72
2022/07/27 00:12:44;;;;;;;0.00;0.00;;;;;;;;;;5052825;28;20286;-72
2022/07/27 00:15:12;;;;;;;0.10;0.10;;;;;;;;;;5053820;28;20195;-73
2022/07/27 00:17:39;;;;;;;0.00;0.00;;;;;;;;;;5051125;28;20214;-73
2022/07/27 00:20:09;;;;;;;0.00;0.00;;;16.90;99.90;;;;;;5048453;28;20195;-72
2022/07/27 00:22:36;;;;;;;0.00;0.00;;;16.80;99.90;;;;;;5052455;28;20563;-73
2022/07/27 00:25:03;;;;;;;0.00;0.00;;;16.80;99.90;;;;;;5049120;28;20289;-72
2022/07/27 00:27:30;;;;;;;0.00;0.00;;;16.80;99.90;;;;;;5053149;28;20198;-72
2022/07/27 00:29:57;;;;;;;0.00;0.00;;;16.80;99.90;;;;;;5048853;28;20207;-73
2022/07/27 00:32:24;;;;;;;0.00;0.00;;;16.80;99.90;;;;;;5053635;28;20206;-73
2022/07/27 00:34:51;;;;;;;0.00;0.00;;;16.70;99.90;;;;;;5048681;28;20227;-73
2022/07/27 00:37:20;;;;;;;0.00;0.00;;;;;;;;;;5045571;28;20212;-73
2022/07/27 00:39:47;;;;;;;0.00;0.00;;;16.70;99.90;;;;;;5050718;28;20262;-73
2022/07/27 00:42:14;;;;;;;0.00;0.00;;;16.70;99.90;;;;;;5048679;28;20215;-72
2022/07/27 00:44:41;;;;;;;0.00;0.00;;;16.70;99.90;;;;;;5048616;28;20222;-73
2022/07/27 00:47:08;;;;;;;0.00;0.00;;;16.70;99.90;;;;;;5050539;28;20257;-72
2022/07/27 00:49:35;;;;;;;0.00;0.00;;;16.70;99.90;;;;;;5048627;28;20222;-73
2022/07/27 00:52:02;;;;;;;0.00;0.00;;;16.70;99.90;;;;;;5049813;28;20211;-72
2022/07/27 00:54:31;;;;;;;0.00;0.00;;;16.70;99.90;;;;;;5050093;28;20218;-70
2022/07/27 00:56:58;;;;;;;0.00;0.00;;;16.80;99.90;;;;;;5051394;28;20659;-71
2022/07/27 00:59:26;;;;;;;0.00;0.00;;;16.70;99.90;;;;;;5052233;28;20198;-71
2022/07/27 01:01:53;;;;;;;0.00;0.00;;;16.70;99.90;;;;;;5053035;28;20225;-70
2022/07/27 01:04:20;;;;;;;0.00;0.00;;;16.70;99.90;;;;;;5050082;28;20238;-70
2022/07/27 01:06:47;;;;;;;0.00;0.00;;;16.70;99.90;;;;;;5060978;28;20217;-70
2022/07/27 01:12:01;;;;;;;0.00;0.00;;;16.70;99.90;;;;;;5046595;28;20200;-72
2022/07/27 01:14:28;;;;;;;0.00;0.00;;;16.70;99.90;;;;;;5041248;28;20231;-70
2022/07/27 01:16:55;;;;;;;0.00;0.00;;;16.70;99.90;;;;;;5041409;28;20266;-70
2022/07/27 01:19:22;;;;;;;0.00;0.00;;;16.70;99.90;;;;;;5048728;28;20209;-70
2022/07/27 01:21:50;;;;;;;0.07;0.07;;;16.70;99.90;;;;;;5044997;28;20211;-70
2022/07/27 01:24:17;;;;;;;0.00;0.00;;;16.60;99.90;;;;;;5055277;28;20215;-70
2022/07/27 01:26:44;;;;;;;0.00;0.00;;;16.60;99.90;;;;;;5050529;28;20203;-70
2022/07/27 01:29:11;;;;;;;0.00;0.00;;;16.60;99.90;;;;;;5050998;28;20278;-70
2022/07/27 01:31:38;;;;;;;0.00;0.00;;;16.60;99.90;;;;;;5059330;28;20259;-70
2022/07/27 01:34:06;;;;;;;0.00;0.00;;;;;;;;;;5047083;28;20700;-72
2022/07/27 01:42:51;;;;;;;0.00;0.00;;;;;;;;;;5021996;28;20273;-73
2022/07/27 01:45:18;;;;;;;0.10;0.10;;;16.30;99.90;;;;;;5021651;28;20235;-69
2022/07/27 01:47:46;;;;;;;0.00;0.00;;;16.10;99.90;;;;;;5025976;28;20271;-70
2022/07/27 01:50:13;;;;;;;0.00;0.00;;;16.10;99.90;;;;;;5023427;28;20207;-70
2022/07/27 01:52:40;;;;;;;0.00;0.00;;;;;;;;;;5041128;28;20194;-70
2022/07/27 01:55:09;;;;;;;0.00;0.00;;;16.00;99.90;;;;;;5043359;28;20207;-71
2022/07/27 01:57:36;;;;;;;0.00;0.00;;;;;;;;;;5026014;28;20294;-71
2022/07/27 02:00:05;;;;;;;0.07;0.00;;;;;;;;;;5042896;28;20199;-71
2022/07/27 02:02:39;;;;;;;0.00;0.00;;;16.00;99.90;;;;;;5042578;28;20238;-71
2022/07/27 02:05:07;;;;;;;0.00;0.00;;;15.90;99.90;;;;;;5026501;28;20207;-71
2022/07/27 02:07:33;;;;;;;0.10;0.10;;;15.90;99.90;;;;;;5039960;28;20284;-71
2022/07/27 02:10:01;;;;;;;0.00;0.00;;;;;;;;;;5042458;28;20261;-70
2022/07/27 02:12:35;;;;;;;0.00;0.00;;;15.90;99.90;;;;;;5041744;28;20195;-69
2022/07/27 02:15:06;;;;;;;0.00;0.00;;;15.90;99.90;;;;;;5024647;28;20202;-69
2022/07/27 02:17:34;;;;;;;0.00;0.00;;;15.80;99.90;;;;;;5040904;28;20279;-69
2022/07/27 02:20:01;;;;;;;0.00;0.00;;;15.80;99.90;;;;;;5040802;28;20206;-69
2022/07/27 02:22:30;;;;;;;0.00;0.00;;;15.80;99.90;;;;;;5041511;28;20239;-70
2022/07/27 02:24:57;;;;;;;0.00;0.00;;;15.80;99.90;;;;;;5079049;22;20231;-73
2022/07/27 02:27:25;;;;;;;0.07;0.07;;;15.70;99.90;;;;;;5032133;28;20199;-71
2022/07/27 02:29:52;;;;;;;0.00;0.00;;;15.70;99.90;;;;;;5052218;28;20240;-71
2022/07/27 02:32:21;;;;;;;0.00;0.00;;;15.70;99.90;;;;;;5054674;28;20264;-71
2022/07/27 02:34:48;;;;;;;0.10;0.10;;;15.70;99.90;;;;;;5035158;28;20211;-71
2022/07/27 02:37:15;;;;;;;0.10;0.10;;;15.60;99.90;;;;;;5053952;28;20203;-71
2022/07/27 02:39:45;;;;;;;0.10;0.10;;;15.60;99.90;;;;;;5066037;28;20207;-70
2022/07/27 02:42:13;;;;;;;0.10;0.10;;;15.60;99.90;;;;;;5052100;28;20219;-71
2022/07/27 02:44:44;;;;;;;0.00;0.00;;;15.50;99.90;;;;;;5052561;28;20209;-71
2022/07/27 02:47:11;;;;;;;0.00;0.00;;;;;;;;;;5068663;22;20226;-69
2022/07/27 02:49:40;;;;;;;0.00;0.00;;;;;;;;;;5045513;28;20201;-70
2022/07/27 02:52:07;;;;;;;0.03;0.03;;;;;;;;;;5052451;28;20207;-71
2022/07/27 02:54:35;;;;;;;0.07;0.07;;;;;;;;;;5037379;28;20202;-71
2022/07/27 02:57:03;;;;;;;0.00;0.00;;;;;;;;;;5061598;28;20203;-70
2022/07/27 02:59:30;;;;;;;0.10;0.10;;;;;;;;;;5044204;28;20205;-71
2022/07/27 03:01:58;;;;;;;0.00;0.00;;;;;;;;;;5044079;28;20293;-71
2022/07/27 03:04:26;;;;;;;0.00;0.00;;;;;;;;;;5044680;28;20281;-72
2022/07/27 03:06:55;;;;;;;0.00;0.00;;;;;;;;;;5064509;28;20730;-71
2022/07/27 03:09:23;;;;;;;0.03;0.03;;;;;;;;;;5057837;28;20195;-72
2022/07/27 03:11:51;;;;;;;0.07;0.07;;;;;;;;;;5047109;28;20731;-71
2022/07/27 03:14:19;;;;;;;0.00;0.00;;;;;;;;;;5063893;28;21188;-71
2022/07/27 03:16:46;;;;;;;0.00;0.00;;;;;;;;;;5065955;28;20229;-71
2022/07/27 03:19:16;;;;;;;0.10;0.10;;;;;;;;;;5049781;28;20213;-72
2022/07/27 03:21:43;;;;;;;0.00;0.00;;;;;;;;;;5051776;28;20228;-71
2022/07/27 03:24:13;;;;;;;0.00;0.00;;;;;;;;;;5041888;28;20222;-71
2022/07/27 03:26:42;;;;;;;0.10;0.10;;;;;;;;;;5070188;28;20229;-71
2022/07/27 03:29:09;;;;;;;0.10;0.10;;;;;;;;;;5072458;28;20202;-71
2022/07/27 03:31:37;;;;;;;0.00;0.00;;;;;;;;;;5071865;28;20285;-71
2022/07/27 03:34:05;;;;;;;0.07;0.07;;;;;;;;;;5048712;28;20202;-71
2022/07/27 03:36:35;;;;;;;0.03;0.03;;;15.50;99.90;;;;;;5053232;28;20228;-71
2022/07/27 03:39:01;;;;;;;0.00;0.00;;;15.30;99.90;;;;;;5069371;28;20199;-71
2022/07/27 03:41:30;;;;;;;0.07;0.07;;;15.20;99.90;;;;;;5066805;28;20234;-71
2022/07/27 03:43:58;;;;;;;0.00;0.00;;;;;;;;;;5048368;28;20254;-71
2022/07/27 03:46:25;;;;;;;0.00;0.00;;;;;;;;;;5066330;28;20224;-71
2022/07/27 03:48:53;;;;;;;0.10;0.10;;;;;;;;;;5071161;28;20197;-72
2022/07/27 03:51:21;;;;;;;0.00;0.00;;;;;;;;;;5049797;28;20230;-71
2022/07/27 03:53:48;;;;;;;0.00;0.00;;;;;;;;;;5057343;28;20208;-72
2022/07/27 03:56:16;;;;;;;0.00;0.00;;;;;;;;;;5066170;28;20388;-72
2022/07/27 03:58:45;;;;;;;0.00;0.00;;;;;;;;;;5056879;28;20213;-71
2022/07/27 04:01:12;;;;;;;0.00;0.00;;;;;;;;;;5044672;28;20714;-71
2022/07/27 04:03:42;;;;;;;0.00;0.00;;;;;;;;;;5048966;28;20215;-72
2022/07/27 04:06:09;;;;;;;0.10;0.10;;;;;;;;;;5047965;28;20309;-71
2022/07/27 04:08:38;;;;;;;0.10;0.10;;;;;;;;;;5066116;28;20280;-71
2022/07/27 04:11:08;;;;;;;0.10;0.10;;;;;;;;;;5048829;28;20230;-73
2022/07/27 04:13:35;;;;;;;0.10;0.10;;;;;;;;;;5065416;28;20234;-71
2022/07/27 04:16:05;;;;;;;0.10;0.10;;;;;;;;;;5065532;28;20234;-71
2022/07/27 04:18:32;;;;;;;0.10;0.10;;;;;;;;;;5049752;28;20233;-70
2022/07/27 04:21:02;;;;;;;0.10;0.10;;;;;;;;;;5064433;28;20206;-71
2022/07/27 04:23:30;;;;;;;0.10;0.10;;;;;;;;;;5047660;28;20228;-71
2022/07/27 04:25:57;;;;;;;0.07;0.07;;;;;;;;;;5066830;28;20229;-71
2022/07/27 04:28:24;;;;;;;0.03;0.03;;;;;;;;;;5041649;28;20212;-71
2022/07/27 04:30:55;;;;;;;0.10;0.10;;;;;;;;;;5064282;28;20214;-73
2022/07/27 04:33:23;;;;;;;0.07;0.07;;;;;;;;;;5047551;28;20182;-72
2022/07/27 04:35:51;;;;;;;0.00;0.00;;;;;;;;;;5037569;28;20314;-72
2022/07/27 04:38:18;;;;;;;0.10;0.10;;;;;;;;;;5065301;28;21724;-70
2022/07/27 04:40:45;;;;;;;0.00;0.00;;;;;;;;;;5048159;28;20198;-73
2022/07/27 04:43:14;;;;;;;0.00;0.00;;;;;;;;;;5046843;28;20226;-72
2022/07/27 04:45:41;;;;;;;0.00;0.00;;;;;;;;;;5065542;28;20218;-71
2022/07/27 04:48:09;;;;;;;0.00;0.00;;;;;;;;;;5065527;28;20253;-70
2022/07/27 04:50:41;;;;;;;0.00;0.00;;;;;;;;;;5063219;28;20504;-70
2022/07/27 04:53:09;;;;;;;0.10;0.10;;;;;;;;;;5063547;28;20248;-71
2022/07/27 04:55:37;;;;;;;0.00;0.00;;;;;;;;;;5042998;28;20254;-71
2022/07/27 04:58:04;;;;;;;0.00;0.00;;;;;;;;;;5047339;28;20292;-72
2022/07/27 05:00:33;;;;;;;0.00;0.00;;;;;;;;;;5045981;28;20203;-71
2022/07/27 05:03:01;;;;;;;0.00;0.00;;;;;;;;;;5060918;28;20214;-70
2022/07/27 05:05:37;;;;;;;0.00;0.00;;;;;;;;;;5048070;28;20233;-72
2022/07/27 05:11:05;;;;;;;0.00;0.00;;;;;;;;;;5052430;28;20210;-74
2022/07/27 05:13:38;;;;;;;0.00;0.00;;;;;;;;;;5065534;28;20213;-70
2022/07/27 05:16:08;;;;;;;0.03;0.03;;;;;;;;;;5053145;28;20225;-72
2022/07/27 05:18:37;;;;;;;0.00;0.00;;;;;;;;;;5068561;28;20195;-72
2022/07/27 05:21:05;;;;;;;0.00;0.00;;;;;;;;;;5051345;28;20210;-72
2022/07/27 05:23:35;;;;;;;0.00;0.00;;;;;;;;;;5050065;28;20303;-72
2022/07/27 05:26:02;;;;;;;0.00;0.00;;;;;;;;;;5067588;28;20222;-71
2022/07/27 05:28:29;;;;;;;0.00;0.00;;;;;;;;;;5070463;28;20199;-72
2022/07/27 05:30:57;;;;;;;0.00;0.00;;;;;;;;;;5067159;28;20211;-72
2022/07/27 05:33:25;;;;;;;0.00;0.00;;;;;;;;;;5066591;28;20200;-72
2022/07/27 05:35:52;;;;;;;0.07;0.07;;;;;;;;;;5057749;28;20214;-72
2022/07/27 05:38:19;;;;;;;0.00;0.00;;;;;;;;;;5040622;28;20211;-71
2022/07/27 05:40:50;;;;;;;0.10;0.10;;;;;;;;;;5066052;28;20206;-72
2022/07/27 05:43:20;;;;;;;0.00;0.00;;;;;;;;;;5060756;28;20260;-72
2022/07/27 05:45:48;;;;;;;0.00;0.00;;;;;;;;;;5066786;28;20234;-72
2022/07/27 05:48:15;;;;;;;0.00;0.00;;;;;;;;;;5047565;28;20206;-73
2022/07/27 05:50:43;;;;;;;0.00;0.00;;;;;;;;;;5047714;28;20202;-72
2022/07/27 05:53:10;;;;;;;0.00;0.00;;;;;;;;;;5062345;28;20211;-72
2022/07/27 05:55:38;;;;;;;0.00;0.00;;;;;;;;;;5055187;28;20667;-72
2022/07/27 05:58:06;;;;;;;0.00;0.00;;;;;;;;;;5063789;28;20252;-72
2022/07/27 06:00:35;;;;;;;0.00;0.00;;;;;;;;;;5048654;28;20199;-71
2022/07/27 06:03:02;;;;;;;0.00;0.00;;;;;;;;;;5045642;28;20293;-73
2022/07/27 06:05:29;;;;;;;0.00;0.00;;;;;;;;;;5046598;28;20275;-73
2022/07/27 06:08:02;;;;;;;0.03;0.03;;;;;;;;;;5045121;28;20309;-72
2022/07/27 06:10:31;;;;;;;0.00;0.00;;;;;;;;;;5045991;28;20652;-72
2022/07/27 06:12:59;;;;;;;0.00;0.00;;;;;;;;;;5046866;28;20238;-73
2022/07/27 06:15:33;;;;;;;0.00;0.00;;;;;;;;;;5063516;28;20293;-72
2022/07/27 06:18:02;;;;;;;0.00;0.00;;;;;;;;;;5044145;28;20202;-73
2022/07/27 06:20:30;;;;;;;0.00;0.00;;;;;;;;;;5045170;28;20329;-73
2022/07/27 06:23:02;;;;;;;0.00;0.00;;;;;;;;;;5047618;28;20297;-71
2022/07/27 06:25:35;;;;;;;0.00;0.00;;;;;;;;;;5047720;28;20233;-72
2022/07/27 06:28:03;;;;;;;0.00;0.00;;;;;;;;;;5065079;28;20197;-72
2022/07/27 06:30:33;;;;;;;0.00;0.00;;;;;;;;;;5048604;28;20477;-71
2022/07/27 06:33:03;;;;;;;0.00;0.00;;;;;;;;;;5065088;28;20230;-72
2022/07/27 06:35:31;;;;;;;0.00;0.00;;;;;;;;;;5065882;28;20225;-72
2022/07/27 06:37:58;;;;;;;0.00;0.00;;;;;;;;;;5063561;28;20214;-72
2022/07/27 06:40:25;;;;;;;0.00;0.00;;;;;;;;;;5053240;28;20240;-72
2022/07/27 06:42:53;;;;;;;0.00;0.00;;;;;;;;;;5064844;28;20198;-71
2022/07/27 06:45:22;;;;;;;0.00;0.00;;;;;;;;;;5066079;28;20259;-72
2022/07/27 06:47:51;;;;;;;0.00;0.00;;;;;;;;;;5043927;28;20203;-72
2022/07/27 06:50:20;;;;;;;0.00;0.00;;;;;;;;;;5054404;28;20244;-73
2022/07/27 06:52:47;;;;;;;0.00;0.00;;;;;;;;;;5054562;28;20218;-72
2022/07/27 06:55:14;;;;;;;0.00;0.00;;;20.40;99.90;;;;;;5048097;28;20210;-72
2022/07/27 06:57:45;;;;;;;0.00;0.00;;;20.30;99.90;;;;;;5045250;28;20197;-72
2022/07/27 07:00:15;;;;;;;0.00;0.00;;;20.10;99.90;;;;;;5048972;28;20198;-73
2022/07/27 07:02:55;;;;;;;0.00;0.00;;;20.30;99.90;;;;;;5050346;28;20282;-72
2022/07/27 07:05:23;;;;;;;0.00;0.00;;;20.10;99.90;;;;;;5054392;28;20237;-73
2022/07/27 07:07:54;;;;;;;0.00;0.00;;;20.00;99.90;;;;;;5064874;28;20654;-71
2022/07/27 07:10:23;;;;;;;0.00;0.00;;;20.20;99.90;;;;;;5065563;28;20206;-72
2022/07/27 07:12:54;;;;;;;0.00;0.00;;;;;;;;;;5049340;28;20202;-73
2022/07/27 07:15:24;;;;;;;0.00;0.00;;;;;;;;;;5040001;28;20268;-72
2022/07/27 07:17:59;;;;;;;0.00;0.00;;;;;;;;;;5052937;28;20211;-73
2022/07/27 07:20:27;;;;;;;0.00;0.00;;;20.60;99.90;;;;;;5062900;28;20178;-72
2022/07/27 07:22:55;;;;;;;0.00;0.00;;;20.40;99.90;;;;;;5065770;28;20222;-72
2022/07/27 07:25:23;;;;;;;0.00;0.00;;;20.50;99.90;;;;;;5063912;28;20321;-73
2022/07/27 07:27:50;;;;;;;0.00;0.00;;;20.40;99.90;;;;;;5061579;28;20245;-72
2022/07/27 07:30:28;;;;;;;0.00;0.00;;;20.50;99.90;;;;;;5045450;28;20716;-72
2022/07/27 07:33:19;;;;;;;0.00;0.00;;;20.70;99.90;;;;;;5053108;28;20213;-72
2022/07/27 07:35:49;;;;;;;0.00;0.00;;;20.70;99.90;;;;;;5044857;28;20704;-72
2022/07/27 07:38:17;;;;;;;0.00;0.00;;;21.30;99.90;;;;;;5063183;28;20584;-73
2022/07/27 07:40:45;;;;;;;0.00;0.00;;;21.50;99.90;;;;;;5069002;28;20222;-72
2022/07/27 07:43:13;;;;;;;0.00;0.00;;;21.70;99.90;;;;;;5063197;28;20198;-73
2022/07/27 07:45:42;;;;;;;0.00;0.00;;;21.90;99.90;;;;;;5049952;28;20265;-72
2022/07/27 07:48:10;;;;;;;0.00;0.00;;;22.00;99.90;;;;;;5047731;28;20203;-73
2022/07/27 07:50:38;;;;;;;0.00;0.00;;;22.10;99.90;;;;;;5063245;28;20191;-74
2022/07/27 07:53:07;;;;;;;0.00;0.00;;;22.10;99.90;;;;;;5056159;28;20207;-72
2022/07/27 07:55:34;;;;;;;0.00;0.00;;;;;;;;;;5046140;28;20302;-72
2022/07/27 07:58:01;;;;;;;0.00;0.00;;;21.80;99.90;;;;;;5060641;28;20755;-73
2022/07/27 08:00:33;;;;;;;0.00;0.00;;;21.90;99.90;;;;;;5050006;28;20182;-73
2022/07/27 08:03:00;;;;;;;0.00;0.00;;;22.00;99.90;;;;;;5044016;28;20234;-74
2022/07/27 08:05:28;;;;;;;0.00;0.00;;;;;;;;;;5069609;28;20232;-73
2022/07/27 08:07:56;;;;;;;0.00;0.00;;;;;;;;;;5049781;28;20226;-73
2022/07/27 08:10:26;;;;;;;0.00;0.00;;;;;;;;;;5064840;28;20214;-73
2022/07/27 08:12:56;;;;;;;0.00;0.00;;;;;;;;;;5045748;28;20209;-73
2022/07/27 08:15:24;;;;;;;0.00;0.00;;;;;;;;;;5067897;28;20214;-73
2022/07/27 08:17:52;;;;;;;0.00;0.00;;;;;;;;;;5070688;28;20230;-73
2022/07/27 08:20:21;;;;;;;0.00;0.00;;;;;;;;;;5068613;28;20266;-72
2022/07/27 08:22:49;;;;;;;0.00;0.00;;;;;;;;;;5055716;28;20218;-72
2022/07/27 08:25:17;;;;;;;0.00;0.00;;;;;;;;;;5069561;28;20226;-73
2022/07/27 08:27:46;;;;;;;0.00;0.00;;;;;;;;;;5048292;28;20208;-72
2022/07/27 08:30:15;;;;;;;0.00;0.00;;;;;;;;;;5048294;28;20202;-73
2022/07/27 08:32:47;;;;;;;0.00;0.00;;;;;;;;;;5049368;28;20236;-72
2022/07/27 08:35:19;;;;;;;0.00;0.00;;;21.40;99.90;;;;;;5071316;28;20297;-72
2022/07/27 08:37:47;;;;;;;0.00;0.00;;;21.40;99.90;;;;;;5069025;28;20206;-73
2022/07/27 08:40:15;;;;;;;0.00;0.00;;;21.50;99.90;;;;;;5066998;28;20194;-72
2022/07/27 08:42:42;;;;;;;0.00;0.00;;;21.40;99.90;;;;;;5052439;28;20205;-72
2022/07/27 08:45:14;;;;;;;0.00;0.00;;;21.40;99.90;;;;;;5049422;28;20235;-71
2022/07/27 08:47:44;;;;;;;0.00;0.00;;;21.70;99.90;;;;;;5049852;28;20203;-73
2022/07/27 08:50:29;;;;;;;0.00;0.00;;;21.70;99.90;;;;;;5049119;28;20207;-74
2022/07/27 08:53:04;;;;;;;0.00;0.00;;;21.60;99.90;;;;;;5069748;28;20304;-74
2022/07/27 08:55:45;;;;;;;0.00;0.00;;;21.50;99.90;;;;;;5060010;28;20214;-73
2022/07/27 08:58:14;;;;;;;0.00;0.00;;;21.50;99.90;;;;;;5062547;28;20203;-73
2022/07/27 09:00:44;;;;;;;0.00;0.00;;;21.60;99.90;;;;;;5064166;28;20277;-72
2022/07/27 09:03:11;;;;;;;0.00;0.00;;;22.00;99.90;;;;;;5053826;28;20208;-71
2022/07/27 09:05:41;;;;;;;0.00;0.00;;;22.20;99.90;;;;;;5063620;28;20301;-73
2022/07/27 09:08:10;;;;;;;0.00;0.00;;;22.50;99.90;;;;;;5043913;28;20211;-72
2022/07/27 09:10:38;;;;;;;0.00;0.00;;;22.70;99.90;;;;;;5046997;28;20214;-72
2022/07/27 09:13:17;;;;;;;0.00;0.00;;;22.80;99.90;;;;;;5064932;28;20244;-71
2022/07/27 09:15:47;;;;;;;0.00;0.00;;;23.20;99.90;;;;;;5063905;28;20299;-72
2022/07/27 09:18:19;;;;;;;0.00;0.00;;;23.20;99.90;;;;;;5046224;28;20244;-73
2022/07/27 09:21:10;;;;;;;0.00;0.00;;;23.00;99.90;;;;;;5069113;28;20202;-71
2022/07/27 09:23:37;;;;;;;0.00;0.00;;;22.70;99.90;;;;;;5037362;28;20350;-72
2022/07/27 09:26:17;;;;;;;0.00;0.00;;;22.50;99.90;;;;;;5064109;28;20237;-74
2022/07/27 09:28:44;;;;;;;0.00;0.00;;;22.50;99.90;;;;;;5045380;28;20207;-73
2022/07/27 09:31:16;;;;;;;0.00;0.00;;;22.50;99.90;;;;;;5044545;28;20202;-71
2022/07/27 09:33:46;;;;;;;0.00;0.00;;;22.70;99.90;;;;;;5054193;28;20230;-73
2022/07/27 09:36:13;;;;;;;0.00;0.00;;;22.70;99.90;;;;;;5063563;28;20225;-72
2022/07/27 09:38:51;;;;;;;0.00;0.00;;;22.50;99.90;;;;;;5053528;28;20207;-73
2022/07/27 09:41:21;;;;;;;0.00;0.00;;;22.40;99.90;;;;;;5054351;28;20253;-72
2022/07/27 09:43:52;;;;;;;0.00;0.00;;;22.50;99.90;;;;;;5075799;28;20202;-72
2022/07/27 09:46:53;;;;;;;0.00;0.00;;;22.70;99.90;;;;;;5070160;28;20245;-73
2022/07/27 09:49:44;;;;;;;0.00;0.00;;;23.10;99.90;;;;;;5053338;28;20336;-73
2022/07/27 09:52:22;;;;;;;0.00;0.00;;;23.10;99.90;;;;;;5040090;28;20202;-73
2022/07/27 09:54:50;;;;;;;0.00;0.00;;;22.90;99.90;;;;;;5059349;28;20210;-74
2022/07/27 09:57:18;;;;;;;0.00;0.00;;;22.70;99.90;;;;;;5053909;28;20209;-75
2022/07/27 09:59:45;;;;;;;0.00;0.00;;;22.50;99.90;;;;;;5052395;28;20206;-73
2022/07/27 10:02:14;;;;;;;0.00;0.00;;;22.30;99.90;;;;;;5067565;28;20195;-73
2022/07/27 10:04:41;;;;;;;0.00;0.00;;;22.20;99.90;;;;;;5054557;28;20228;-74
2022/07/27 10:07:08;;;;;;;0.00;0.00;;;22.40;99.90;;;;;;5055849;28;20295;-74
2022/07/27 10:09:35;;;;;;;0.00;0.00;;;22.70;99.90;;;;;;5054507;28;20259;-73
2022/07/27 10:12:03;;;;;;;0.00;0.00;;;22.90;99.90;;;;;;5056171;28;20206;-75
2022/07/27 10:14:31;;;;;;;0.00;0.00;;;23.30;99.90;;;;;;5051464;28;20213;-74
2022/07/27 10:17:34;;;;;;;0.00;0.00;;;23.40;99.90;;;;;;5055166;28;20198;-73
2022/07/27 10:20:07;;;;;;;0.00;0.00;;;23.40;99.90;;;;;;5049486;28;20301;-73
2022/07/27 10:22:52;;;;;;;0.00;0.00;;;23.10;99.90;;;;;;5072726;28;20213;-74
2022/07/27 10:25:20;;;;;;;0.00;0.00;;;22.80;99.90;;;;;;5046184;28;20243;-74
2022/07/27 10:27:48;;;;;;;0.00;0.00;;;22.70;99.90;;;;;;5058307;28;20206;-73
2022/07/27 10:30:17;;;;;;;0.00;0.00;;;22.50;99.90;;;;;;5049308;28;20203;-74
2022/07/27 10:32:46;;;;;;;0.00;0.00;;;22.50;99.90;;;;;;5052006;28;20654;-74
2022/07/27 10:35:33;;;;;;;0.00;0.00;;;22.40;99.90;;;;;;5047642;28;20214;-74
2022/07/27 10:38:08;;;;;;;0.00;0.00;;;22.40;99.90;;;;;;5048314;28;20218;-73
2022/07/27 10:40:35;;;;;;;0.00;0.00;;;22.50;99.90;;;;;;5064550;28;20194;-73
2022/07/27 10:43:08;;;;;;;0.00;0.00;;;22.50;99.90;;;;;;5048569;28;20206;-74
2022/07/27 10:45:39;;;;;;;0.00;0.00;;;22.60;99.90;;;;;;5061114;28;20214;-73
2022/07/27 10:48:07;;;;;;;0.00;0.00;;;22.50;99.90;;;;;;5038881;28;20225;-74
2022/07/27 10:50:35;;;;;;;0.00;0.00;;;22.40;99.90;;;;;;5053315;28;20203;-73
2022/07/27 10:53:08;;;;;;;0.00;0.00;;;22.20;99.90;;;;;;5070651;28;20278;-73
2022/07/27 10:55:47;;;;;;;0.00;0.00;;;22.20;99.90;;;;;;5048045;28;20227;-74
2022/07/27 10:58:49;;;;;;;0.00;0.00;;;22.10;99.90;;;;;;5055672;28;20202;-74
2022/07/27 11:01:18;;;;;;;0.00;0.00;;;22.30;99.90;;;;;;5052324;28;20209;-73
2022/07/27 11:03:52;;;;;;;0.00;0.00;;;22.70;99.90;;;;;;5068447;28;20206;-74
2022/07/27 11:06:30;;;;;;;0.00;0.00;;;23.10;99.90;;;;;;5040085;28;20278;-74
2022/07/27 11:08:59;;;;;;;0.00;0.00;;;23.30;99.90;;;;;;5067920;28;20198;-75
2022/07/27 11:11:27;;;;;;;0.00;0.00;;;23.20;99.90;;;;;;5044301;28;20195;-74
2022/07/27 11:13:57;;;;;;;0.00;0.00;;;23.20;99.90;;;;;;5065217;28;20235;-73
2022/07/27 11:16:26;;;;;;;0.00;0.00;;;22.90;99.90;;;;;;5043148;22;20316;-77
2022/07/27 11:18:57;;;;;;;0.00;0.00;;;22.80;99.90;;;;;;5037466;28;20256;-81
2022/07/27 11:21:27;;;;;;;0.00;0.00;;;22.70;99.90;;;;;;5037836;28;20202;-76
2022/07/27 11:23:56;;;;;;;0.00;0.00;;;22.40;99.90;;;;;;5038902;28;20202;-75
2022/07/27 11:26:25;;;;;;;0.00;0.00;;;22.40;99.90;;;;;;5036072;28;20234;-76
2022/07/27 11:28:53;;;;;;;0.00;0.00;;;22.30;99.90;;;;;;5054444;28;20699;-76
2022/07/27 11:31:20;;;;;;;0.00;0.00;;;22.40;99.90;;;;;;5038034;28;20231;-75
2022/07/27 11:33:52;;;;;;;0.00;0.00;;;22.40;99.90;;;;;;5050242;28;20287;-75
2022/07/27 11:36:21;;;;;;;0.00;0.00;;;22.40;99.90;;;;;;5059438;28;20317;-76
2022/07/27 11:38:51;;;;;;;0.00;0.00;;;22.40;99.90;;;;;;5037826;28;20207;-75
2022/07/27 11:41:23;;;;;;;0.00;0.00;;;22.50;99.90;;;;;;5036953;28;20203;-77
2022/07/27 11:43:50;;;;;;;0.00;0.00;;;22.40;99.90;;;;;;5036735;28;20196;-74
2022/07/27 11:46:21;;;;;;;0.00;0.00;;;22.40;99.90;;;;;;5042435;28;20695;-77
2022/07/27 11:48:51;;;;;;;0.00;0.00;;;22.40;99.90;;;;;;5052710;28;20212;-74
2022/07/27 11:51:19;;;;;;;0.00;0.00;;;22.30;99.90;;;;;;5040084;28;20200;-74
2022/07/27 11:53:47;;;;;;;0.00;0.00;;;22.50;99.90;;;;;;5055754;28;20233;-75
2022/07/27 11:56:22;;;;;;;0.00;0.00;;;22.60;99.90;;;;;;5037590;28;20226;-74
2022/07/27 11:59:10;;;;;;;0.00;0.00;;;22.60;99.90;;;;;;5043115;28;20203;-75
2022/07/27 12:01:40;;;;;;;0.00;0.00;;;22.70;99.90;;;;;;5029762;28;20298;-74
2022/07/27 12:04:12;;;;;;;0.00;0.00;;;22.80;99.90;;;;;;5041313;28;20252;-74
2022/07/27 12:06:40;;;;;;;0.00;0.00;;;23.00;99.90;;;;;;5036908;28;20279;-74
2022/07/27 12:09:11;;;;;;;0.00;0.00;;;23.30;99.90;;;;;;5053746;28;20195;-74
2022/07/27 12:11:57;;;;;;;0.00;0.00;;;23.30;99.90;;;;;;5042220;28;20203;-75
2022/07/27 12:14:36;;;;;;;0.00;0.00;;;23.20;99.90;;;;;;5041042;28;20304;-76
2022/07/27 12:17:11;;;;;;;0.00;0.00;;;23.30;99.90;;;;;;5041743;28;20203;-75
2022/07/27 12:19:38;;;;;;;0.00;0.00;;;23.50;99.90;;;;;;5035694;28;20213;-75
2022/07/27 12:22:06;;;;;;;0.00;0.00;;;23.60;99.90;;;;;;5040847;28;20211;-75
2022/07/27 12:24:37;;;;;;;0.00;0.00;;;23.60;99.90;;;;;;5042699;28;20245;-76
2022/07/27 12:27:07;;;;;;;0.00;0.00;;;23.60;99.90;;;;;;5036920;28;20273;-76
2022/07/27 12:29:54;;;;;;;0.00;0.00;;;23.60;99.90;;;;;;5058102;28;20226;-77
2022/07/27 12:32:21;;;;;;;0.00;0.00;;;23.60;99.90;;;;;;5043249;28;20277;-74
2022/07/27 12:34:48;;;;;;;0.00;0.00;;;23.60;99.90;;;;;;5043174;28;20251;-75
2022/07/27 12:37:15;;;;;;;0.00;0.00;;;23.50;99.90;;;;;;5031871;28;20549;-75
2022/07/27 12:39:45;;;;;;;0.00;0.00;;;23.50;99.90;;;;;;5040684;28;20199;-75
2022/07/27 12:42:13;;;;;;;0.00;0.00;;;23.50;99.90;;;;;;5042812;28;20290;-74
2022/07/27 12:44:42;;;;;;;0.00;0.00;;;23.50;99.90;;;;;;5051271;28;20249;-78
2022/07/27 12:50:06;;;;;;;0.00;0.00;;;23.50;99.90;;;;;;5037240;28;20320;-76
2022/07/27 12:52:35;;;;;;;0.00;0.00;;;23.50;99.90;;;;;;5039575;28;20202;-76
2022/07/27 12:55:05;;;;;;;0.00;0.00;;;23.50;99.90;;;;;;5043054;28;20229;-76
2022/07/27 12:57:32;;;;;;;0.00;0.00;;;23.70;99.90;;;;;;5040992;28;20299;-75
2022/07/27 12:59:59;;;;;;;0.00;0.00;;;23.80;99.90;;;;;;5042968;28;20204;-77
2022/07/27 13:02:26;;;;;;;0.00;0.00;;;24.00;99.90;;;;;;5042806;28;20397;-74
2022/07/27 13:04:53;;;;;;;0.00;0.00;;;24.10;99.90;;;;;;5042903;28;20242;-75
2022/07/27 13:07:21;;;;;;;0.00;0.00;;;24.10;99.90;;;;;;5057558;28;20211;-76
2022/07/27 13:09:49;;;;;;;0.00;0.00;;;24.00;99.90;;;;;;5058189;28;20262;-76
2022/07/27 13:12:17;;;;;;;0.00;0.00;;;23.80;99.90;;;;;;5039445;28;20581;-76
2022/07/27 13:14:44;;;;;;;0.00;0.00;;;23.60;99.90;;;;;;5043960;28;20229;-76
2022/07/27 13:17:12;;;;;;;0.00;0.00;;;23.40;99.90;;;;;;5061371;28;20223;-74
2022/07/27 13:19:39;;;;;;;0.00;0.00;;;23.30;99.90;;;;;;5054815;28;20205;-76
2022/07/27 13:22:06;;;;;;;0.00;0.00;;;23.10;99.90;;;;;;5053385;28;20243;-79
2022/07/27 13:24:33;;;;;;;0.00;0.00;;;23.00;99.90;;;;;;5039234;28;20238;-77
2022/07/27 13:27:00;;;;;;;0.00;0.00;;;22.80;99.90;;;;;;5036340;28;20223;-75
2022/07/27 13:29:29;;;;;;;0.00;0.00;;;22.80;99.90;;;;;;5044098;28;20303;-76
2022/07/27 13:31:56;;;;;;;0.00;0.00;;;22.90;99.90;;;;;;5039947;28;20206;-76
2022/07/27 13:34:23;;;;;;;0.00;0.00;;;22.90;99.90;;;;;;5055184;28;20574;-76
2022/07/27 13:36:50;;;;;;;0.00;0.00;;;23.10;99.90;;;;;;5036352;28;20204;-78
2022/07/27 13:39:17;;;;;;;0.00;0.00;;;23.20;99.90;;;;;;5037718;28;20222;-75
2022/07/27 13:41:50;;;;;;;0.00;0.00;;;23.30;99.90;;;;;;5094818;22;20230;-73
2022/07/27 13:44:17;;;;;;;0.00;0.00;;;23.30;99.90;;;;;;5080500;28;20675;-73
2022/07/27 13:46:46;;;;;;;0.00;0.00;;;23.20;99.90;;;;;;5082356;28;20236;-73
2022/07/27 13:49:13;;;;;;;0.00;0.00;;;23.30;99.90;;;;;;5064420;28;20194;-74
2022/07/27 13:51:40;;;;;;;0.00;0.00;;;23.40;99.90;;;;;;5083706;28;20195;-74
2022/07/27 13:54:07;;;;;;;0.00;0.00;;;23.40;99.90;;;;;;5064397;28;20211;-73